sensor_id;sensor_type;location;lat;lon;timestamp;pressure;altitude;pressure_sealevel;temperature;humidity
74678;BME280;63207;56.328;43.994;2022-10-13T00:00:45;100793.84;;;22.81;52.95
74678;BME280;63207;56.328;43.994;2022-10-13T00:03:12;100793.84;;;22.81;52.92
74678;BME280;63207;56.328;43.994;2022-10-13T00:05:42;100793.84;;;22.81;52.98
74678;BME280;63207;56.328;43.994;2022-10-13T00:08:09;100794.81;;;22.80;52.92
74678;BME280;63207;56.328;43.994;2022-10-13T00:10:41;100797.47;;;22.80;52.88
74678;BME280;63207;56.328;43.994;2022-10-13T00:13:10;100806.19;;;22.80;52.79
74678;BME280;63207;56.328;43.994;2022-10-13T00:15:42;100796.63;;;22.79;52.96
74678;BME280;63207;56.328;43.994;2022-10-13T00:18:08;100801.91;;;22.79;52.92
74678;BME280;63207;56.328;43.994;2022-10-13T00:20:34;100799.28;;;22.79;52.93
74678;BME280;63207;56.328;43.994;2022-10-13T00:23:00;100807.19;;;22.79;52.88
74678;BME280;63207;56.328;43.994;2022-10-13T00:25:26;100802.72;;;22.80;52.89
74678;BME280;63207;56.328;43.994;2022-10-13T00:27:52;100808.00;;;22.80;52.93
74678;BME280;63207;56.328;43.994;2022-10-13T00:30:19;100797.47;;;22.80;52.97
74678;BME280;63207;56.328;43.994;2022-10-13T00:33:04;100795.81;;;22.79;52.98
74678;BME280;63207;56.328;43.994;2022-10-13T00:35:30;100794.00;;;22.79;52.94
74678;BME280;63207;56.328;43.994;2022-10-13T00:37:56;100796.63;;;22.79;52.93
74678;BME280;63207;56.328;43.994;2022-10-13T00:40:22;100793.19;;;22.79;52.86
74678;BME280;63207;56.328;43.994;2022-10-13T00:42:48;100793.19;;;22.79;52.96
74678;BME280;63207;56.328;43.994;2022-10-13T00:45:27;100795.81;;;22.79;52.91
74678;BME280;63207;56.328;43.994;2022-10-13T00:48:12;100794.16;;;22.78;52.93
74678;BME280;63207;56.328;43.994;2022-10-13T00:50:40;100795.81;;;22.79;52.94
74678;BME280;63207;56.328;43.994;2022-10-13T00:53:30;100792.50;;;22.77;52.98
74678;BME280;63207;56.328;43.994;2022-10-13T00:55:57;100790.53;;;22.79;52.94
74678;BME280;63207;56.328;43.994;2022-10-13T00:58:24;100785.41;;;22.77;52.85
74678;BME280;63207;56.328;43.994;2022-10-13T01:00:51;100788.88;;;22.78;52.87
74678;BME280;63207;56.328;43.994;2022-10-13T01:03:20;100775.84;;;22.76;52.87
74678;BME280;63207;56.328;43.994;2022-10-13T01:05:47;100786.41;;;22.76;52.87
74678;BME280;63207;56.328;43.994;2022-10-13T01:08:14;100793.31;;;22.77;52.92
74678;BME280;63207;56.328;43.994;2022-10-13T01:10:54;100787.22;;;22.77;52.91
74678;BME280;63207;56.328;43.994;2022-10-13T01:13:34;100788.22;;;22.76;52.81
74678;BME280;63207;56.328;43.994;2022-10-13T01:16:11;100789.88;;;22.77;52.92
74678;BME280;63207;56.328;43.994;2022-10-13T01:18:47;100786.41;;;22.76;52.89
74678;BME280;63207;56.328;43.994;2022-10-13T01:21:42;100791.69;;;22.76;52.90
74678;BME280;63207;56.328;43.994;2022-10-13T01:27:26;100791.00;;;22.74;52.94
74678;BME280;63207;56.328;43.994;2022-10-13T01:36:01;100787.38;;;22.75;52.94
74678;BME280;63207;56.328;43.994;2022-10-13T01:38:10;100793.66;;;22.74;52.90
74678;BME280;63207;56.328;43.994;2022-10-13T01:43:22;100797.91;;;22.75;52.82
74678;BME280;63207;56.328;43.994;2022-10-13T01:45:54;100806.00;;;22.74;52.90
74678;BME280;63207;56.328;43.994;2022-10-13T01:48:23;100806.81;;;22.74;52.84
74678;BME280;63207;56.328;43.994;2022-10-13T01:50:52;100803.38;;;22.74;52.91
74678;BME280;63207;56.328;43.994;2022-10-13T01:53:19;100809.47;;;22.74;52.91
74678;BME280;63207;56.328;43.994;2022-10-13T01:55:57;100815.56;;;22.75;52.81
74678;BME280;63207;56.328;43.994;2022-10-13T01:58:28;100812.09;;;22.74;52.87
74678;BME280;63207;56.328;43.994;2022-10-13T02:01:03;100806.81;;;22.74;52.93
74678;BME280;63207;56.328;43.994;2022-10-13T02:03:44;100814.75;;;22.74;52.91
74678;BME280;63207;56.328;43.994;2022-10-13T02:12:09;100813.91;;;22.74;52.85
74678;BME280;63207;56.328;43.994;2022-10-13T02:14:39;100814.88;;;22.73;52.86
74678;BME280;63207;56.328;43.994;2022-10-13T02:17:07;100814.06;;;22.72;52.92
74678;BME280;63207;56.328;43.994;2022-10-13T02:19:36;100807.81;;;22.73;52.92
74678;BME280;63207;56.328;43.994;2022-10-13T02:22:05;100817.53;;;22.73;52.89
74678;BME280;63207;56.328;43.994;2022-10-13T02:24:32;100818.38;;;22.73;52.81
74678;BME280;63207;56.328;43.994;2022-10-13T02:26:58;100818.38;;;22.73;52.85
74678;BME280;63207;56.328;43.994;2022-10-13T02:29:24;100815.75;;;22.73;52.83
74678;BME280;63207;56.328;43.994;2022-10-13T02:31:50;100814.88;;;22.73;52.91
74678;BME280;63207;56.328;43.994;2022-10-13T02:34:19;100814.88;;;22.73;52.83
74678;BME280;63207;56.328;43.994;2022-10-13T02:36:45;100820.16;;;22.73;52.83
74678;BME280;63207;56.328;43.994;2022-10-13T02:39:11;100822.78;;;22.73;52.88
74678;BME280;63207;56.328;43.994;2022-10-13T02:41:38;100816.69;;;22.72;52.80
74678;BME280;63207;56.328;43.994;2022-10-13T02:44:04;100833.34;;;22.73;52.89
74678;BME280;63207;56.328;43.994;2022-10-13T02:46:40;100830.72;;;22.73;53.01
74678;BME280;63207;56.328;43.994;2022-10-13T02:49:06;100830.72;;;22.73;52.86
74678;BME280;63207;56.328;43.994;2022-10-13T02:51:32;100833.34;;;22.73;52.85
74678;BME280;63207;56.328;43.994;2022-10-13T02:53:58;100838.63;;;22.73;52.92
74678;BME280;63207;56.328;43.994;2022-10-13T02:56:23;100844.75;;;22.73;52.87
74678;BME280;63207;56.328;43.994;2022-10-13T02:58:49;100843.91;;;22.73;52.82
74678;BME280;63207;56.328;43.994;2022-10-13T03:01:15;100841.44;;;22.71;52.81
74678;BME280;63207;56.328;43.994;2022-10-13T03:03:41;100845.72;;;22.72;52.85
74678;BME280;63207;56.328;43.994;2022-10-13T03:06:08;100850.16;;;22.72;52.80
74678;BME280;63207;56.328;43.994;2022-10-13T03:08:34;100848.34;;;22.72;52.71
74678;BME280;63207;56.328;43.994;2022-10-13T03:11:00;100846.69;;;22.71;52.79
74678;BME280;63207;56.328;43.994;2022-10-13T03:13:26;100844.88;;;22.72;52.76
74678;BME280;63207;56.328;43.994;2022-10-13T03:15:52;100841.44;;;22.71;52.81
74678;BME280;63207;56.328;43.994;2022-10-13T03:18:18;100850.97;;;22.72;52.81
74678;BME280;63207;56.328;43.994;2022-10-13T03:20:44;100842.25;;;22.72;52.83
74678;BME280;63207;56.328;43.994;2022-10-13T03:23:10;100837.97;;;22.71;52.84
74678;BME280;63207;56.328;43.994;2022-10-13T03:25:37;100841.44;;;22.71;52.76
74678;BME280;63207;56.328;43.994;2022-10-13T03:28:03;100844.06;;;22.71;52.79
74678;BME280;63207;56.328;43.994;2022-10-13T03:30:29;100843.25;;;22.71;52.81
74678;BME280;63207;56.328;43.994;2022-10-13T03:32:54;100843.25;;;22.71;52.79
74678;BME280;63207;56.328;43.994;2022-10-13T03:35:39;100845.03;;;22.70;52.75
74678;BME280;63207;56.328;43.994;2022-10-13T03:38:05;100846.03;;;22.69;52.83
74678;BME280;63207;56.328;43.994;2022-10-13T03:40:31;100846.03;;;22.69;52.78
74678;BME280;63207;56.328;43.994;2022-10-13T03:42:57;100853.94;;;22.69;52.82
74678;BME280;63207;56.328;43.994;2022-10-13T03:45:23;100847.66;;;22.70;52.79
74678;BME280;63207;56.328;43.994;2022-10-13T03:47:49;100861.72;;;22.71;52.83
74678;BME280;63207;56.328;43.994;2022-10-13T03:50:15;100852.94;;;22.70;52.88
74678;BME280;63207;56.328;43.994;2022-10-13T03:52:41;100861.84;;;22.69;52.83
74678;BME280;63207;56.328;43.994;2022-10-13T03:55:07;100854.75;;;22.70;52.76
74678;BME280;63207;56.328;43.994;2022-10-13T03:57:32;100859.22;;;22.69;52.83
74678;BME280;63207;56.328;43.994;2022-10-13T03:59:58;100862.66;;;22.70;52.78
74678;BME280;63207;56.328;43.994;2022-10-13T04:02:26;100860.22;;;22.68;52.77
74678;BME280;63207;56.328;43.994;2022-10-13T04:05:10;100864.50;;;22.69;52.77
74678;BME280;63207;56.328;43.994;2022-10-13T04:07:36;100865.47;;;22.68;52.67
74678;BME280;63207;56.328;43.994;2022-10-13T04:10:10;100871.56;;;22.69;52.77
74678;BME280;63207;56.328;43.994;2022-10-13T04:12:37;100872.53;;;22.68;52.77
74678;BME280;63207;56.328;43.994;2022-10-13T04:15:06;100871.56;;;22.69;52.83
74678;BME280;63207;56.328;43.994;2022-10-13T04:17:32;100873.22;;;22.70;52.75
74678;BME280;63207;56.328;43.994;2022-10-13T04:19:58;100869.91;;;22.68;52.81
74678;BME280;63207;56.328;43.994;2022-10-13T04:22:24;100877.00;;;22.67;52.86
74678;BME280;63207;56.328;43.994;2022-10-13T04:24:50;100869.91;;;22.68;52.77
74678;BME280;63207;56.328;43.994;2022-10-13T04:27:16;100873.38;;;22.68;52.71
74678;BME280;63207;56.328;43.994;2022-10-13T04:29:44;100878.66;;;22.68;52.74
74678;BME280;63207;56.328;43.994;2022-10-13T04:32:10;100880.44;;;22.68;52.72
74678;BME280;63207;56.328;43.994;2022-10-13T04:34:36;100876.03;;;22.68;52.87
74678;BME280;63207;56.328;43.994;2022-10-13T04:37:01;100883.09;;;22.68;52.76
74678;BME280;63207;56.328;43.994;2022-10-13T04:39:28;100885.72;;;22.68;52.81
74678;BME280;63207;56.328;43.994;2022-10-13T04:42:12;100888.34;;;22.68;52.87
74678;BME280;63207;56.328;43.994;2022-10-13T04:44:38;100891.00;;;22.68;52.76
74678;BME280;63207;56.328;43.994;2022-10-13T04:47:05;100887.53;;;22.67;52.78
74678;BME280;63207;56.328;43.994;2022-10-13T04:49:31;100889.22;;;22.68;52.79
74678;BME280;63207;56.328;43.994;2022-10-13T04:51:57;100891.84;;;22.68;52.76
74678;BME280;63207;56.328;43.994;2022-10-13T04:54:23;100890.03;;;22.69;52.74
74678;BME280;63207;56.328;43.994;2022-10-13T04:56:49;100889.22;;;22.68;52.76
74678;BME280;63207;56.328;43.994;2022-10-13T04:59:15;100892.81;;;22.67;52.79
74678;BME280;63207;56.328;43.994;2022-10-13T05:01:41;100892.00;;;22.67;52.76
74678;BME280;63207;56.328;43.994;2022-10-13T05:04:12;100902.41;;;22.68;52.74
74678;BME280;63207;56.328;43.994;2022-10-13T05:06:40;100897.25;;;22.67;52.67
74678;BME280;63207;56.328;43.994;2022-10-13T05:09:24;100897.25;;;22.67;52.70
74678;BME280;63207;56.328;43.994;2022-10-13T05:11:50;100892.81;;;22.67;52.72
74678;BME280;63207;56.328;43.994;2022-10-13T05:14:19;100903.38;;;22.67;52.70
74678;BME280;63207;56.328;43.994;2022-10-13T05:16:44;100896.44;;;22.66;52.73
74678;BME280;63207;56.328;43.994;2022-10-13T05:19:12;100902.53;;;22.67;52.73
74678;BME280;63207;56.328;43.994;2022-10-13T05:21:38;100902.53;;;22.67;52.79
74678;BME280;63207;56.328;43.994;2022-10-13T05:24:04;100895.59;;;22.66;52.66
74678;BME280;63207;56.328;43.994;2022-10-13T05:26:34;100898.09;;;22.67;52.76
74678;BME280;63207;56.328;43.994;2022-10-13T05:29:01;100894.63;;;22.67;52.75
74678;BME280;63207;56.328;43.994;2022-10-13T05:31:31;100896.28;;;22.68;52.82
74678;BME280;63207;56.328;43.994;2022-10-13T05:34:15;100896.94;;;22.70;53.46
74678;BME280;63207;56.328;43.994;2022-10-13T05:36:41;100901.25;;;22.71;53.98
74678;BME280;63207;56.328;43.994;2022-10-13T05:39:26;100903.59;;;22.74;54.40
74678;BME280;63207;56.328;43.994;2022-10-13T05:42:10;100912.31;;;22.74;55.46
74678;BME280;63207;56.328;43.994;2022-10-13T05:44:55;100909.69;;;22.74;56.51
74678;BME280;63207;56.328;43.994;2022-10-13T05:47:21;100912.31;;;22.74;56.67
74678;BME280;63207;56.328;43.994;2022-10-13T05:49:55;100906.38;;;22.72;56.36
74678;BME280;63207;56.328;43.994;2022-10-13T05:52:22;100902.09;;;22.71;56.28
74678;BME280;63207;56.328;43.994;2022-10-13T05:54:55;100903.03;;;22.70;56.15
74678;BME280;63207;56.328;43.994;2022-10-13T05:57:45;100908.31;;;22.70;55.94
74678;BME280;63207;56.328;43.994;2022-10-13T06:00:30;100900.59;;;22.69;55.64
74678;BME280;63207;56.328;43.994;2022-10-13T06:03:12;100906.69;;;22.69;55.62
74678;BME280;63207;56.328;43.994;2022-10-13T06:05:43;100908.50;;;22.69;55.45
74678;BME280;63207;56.328;43.994;2022-10-13T06:08:14;100905.03;;;22.68;55.42
74678;BME280;63207;56.328;43.994;2022-10-13T06:10:50;100905.03;;;22.68;55.36
74678;BME280;63207;56.328;43.994;2022-10-13T06:13:16;100895.44;;;22.67;55.37
74678;BME280;63207;56.328;43.994;2022-10-13T06:15:42;100905.03;;;22.68;55.28
74678;BME280;63207;56.328;43.994;2022-10-13T06:18:08;100898.09;;;22.67;55.28
74678;BME280;63207;56.328;43.994;2022-10-13T06:20:35;100901.53;;;22.68;55.13
74678;BME280;63207;56.328;43.994;2022-10-13T06:23:02;100902.41;;;22.68;55.09
74678;BME280;63207;56.328;43.994;2022-10-13T06:25:29;100897.25;;;22.67;55.13
74678;BME280;63207;56.328;43.994;2022-10-13T06:28:13;100892.13;;;22.65;54.87
74678;BME280;63207;56.328;43.994;2022-10-13T06:30:57;100887.84;;;22.64;54.96
74678;BME280;63207;56.328;43.994;2022-10-13T06:33:42;100892.13;;;22.65;54.88
74678;BME280;63207;56.328;43.994;2022-10-13T06:36:08;100891.31;;;22.65;54.92
74678;BME280;63207;56.328;43.994;2022-10-13T06:38:52;100896.59;;;22.65;54.88
74678;BME280;63207;56.328;43.994;2022-10-13T06:41:20;100903.69;;;22.64;54.80
74678;BME280;63207;56.328;43.994;2022-10-13T06:43:46;100904.50;;;22.65;54.77
74678;BME280;63207;56.328;43.994;2022-10-13T06:46:12;100908.94;;;22.64;54.85
74678;BME280;63207;56.328;43.994;2022-10-13T06:48:38;100903.69;;;22.64;54.82
74678;BME280;63207;56.328;43.994;2022-10-13T06:51:07;100906.31;;;22.64;54.78
74678;BME280;63207;56.328;43.994;2022-10-13T06:53:33;100900.22;;;22.64;54.84
74678;BME280;63207;56.328;43.994;2022-10-13T06:56:00;100903.69;;;22.64;54.74
74678;BME280;63207;56.328;43.994;2022-10-13T06:58:27;100911.59;;;22.64;54.73
74678;BME280;63207;56.328;43.994;2022-10-13T07:00:53;100914.06;;;22.66;54.70
74678;BME280;63207;56.328;43.994;2022-10-13T07:03:19;100911.41;;;22.66;54.68
74678;BME280;63207;56.328;43.994;2022-10-13T07:05:45;100909.78;;;22.65;54.52
74678;BME280;63207;56.328;43.994;2022-10-13T07:08:12;100908.94;;;22.64;54.61
74678;BME280;63207;56.328;43.994;2022-10-13T07:10:38;100913.22;;;22.65;54.61
74678;BME280;63207;56.328;43.994;2022-10-13T07:13:04;100920.19;;;22.66;54.59
74678;BME280;63207;56.328;43.994;2022-10-13T07:15:36;100926.41;;;22.65;54.47
74678;BME280;63207;56.328;43.994;2022-10-13T07:18:03;100913.22;;;22.65;54.51
74678;BME280;63207;56.328;43.994;2022-10-13T07:20:30;100918.38;;;22.67;54.53
74678;BME280;63207;56.328;43.994;2022-10-13T07:22:58;100915.88;;;22.65;54.42
74678;BME280;63207;56.328;43.994;2022-10-13T07:25:24;100921.13;;;22.65;54.43
74678;BME280;63207;56.328;43.994;2022-10-13T07:27:50;100928.09;;;22.66;54.34
74678;BME280;63207;56.328;43.994;2022-10-13T07:30:16;100921.13;;;22.65;54.40
74678;BME280;63207;56.328;43.994;2022-10-13T07:32:43;100933.38;;;22.66;54.32
74678;BME280;63207;56.328;43.994;2022-10-13T07:35:09;100918.50;;;22.65;54.26
74678;BME280;63207;56.328;43.994;2022-10-13T07:37:36;100925.44;;;22.66;54.36
74678;BME280;63207;56.328;43.994;2022-10-13T07:40:05;100921.13;;;22.65;54.37
74678;BME280;63207;56.328;43.994;2022-10-13T07:42:31;100931.69;;;22.65;54.28
74678;BME280;63207;56.328;43.994;2022-10-13T07:44:57;100929.88;;;22.66;54.27
74678;BME280;63207;56.328;43.994;2022-10-13T07:47:27;100928.09;;;22.66;54.22
74678;BME280;63207;56.328;43.994;2022-10-13T07:50:11;100931.69;;;22.65;54.19
74678;BME280;63207;56.328;43.994;2022-10-13T07:52:37;100931.69;;;22.65;54.24
74678;BME280;63207;56.328;43.994;2022-10-13T07:55:04;100924.78;;;22.64;54.19
74678;BME280;63207;56.328;43.994;2022-10-13T07:57:30;100930.88;;;22.65;54.17
74678;BME280;63207;56.328;43.994;2022-10-13T07:59:56;100935.31;;;22.64;54.10
74678;BME280;63207;56.328;43.994;2022-10-13T08:02:22;100935.16;;;22.66;54.09
74678;BME280;63207;56.328;43.994;2022-10-13T08:04:47;100929.06;;;22.65;54.14
74678;BME280;63207;56.328;43.994;2022-10-13T08:07:13;100936.00;;;22.66;54.15
74678;BME280;63207;56.328;43.994;2022-10-13T08:09:41;100939.31;;;22.68;53.96
74678;BME280;63207;56.328;43.994;2022-10-13T08:12:07;100933.56;;;22.73;53.98
74678;BME280;63207;56.328;43.994;2022-10-13T08:14:33;100933.09;;;22.77;54.12
74678;BME280;63207;56.328;43.994;2022-10-13T08:16:59;100934.31;;;22.83;54.27
74678;BME280;63207;56.328;43.994;2022-10-13T08:19:26;100940.78;;;22.89;54.35
74678;BME280;63207;56.328;43.994;2022-10-13T08:21:53;100942.97;;;22.93;54.42
74678;BME280;63207;56.328;43.994;2022-10-13T08:24:20;100941.69;;;22.97;54.22
74678;BME280;63207;56.328;43.994;2022-10-13T08:26:49;100941.22;;;23.02;54.12
74678;BME280;63207;56.328;43.994;2022-10-13T08:29:16;100945.38;;;23.05;53.96
74678;BME280;63207;56.328;43.994;2022-10-13T08:31:42;100944.22;;;23.07;54.04
74678;BME280;63207;56.328;43.994;2022-10-13T08:34:09;100941.13;;;23.12;54.12
74678;BME280;63207;56.328;43.994;2022-10-13T08:36:53;100952.19;;;23.15;54.06
74678;BME280;63207;56.328;43.994;2022-10-13T08:39:24;100951.91;;;23.18;54.29
74678;BME280;63207;56.328;43.994;2022-10-13T08:41:51;100952.25;;;23.24;54.56
74678;BME280;63207;56.328;43.994;2022-10-13T08:49:33;100952.97;;;23.34;54.16
74678;BME280;63207;56.328;43.994;2022-10-13T08:52:02;100963.22;;;23.37;54.25
74678;BME280;63207;56.328;43.994;2022-10-13T08:54:29;100956.63;;;23.41;54.38
74678;BME280;63207;56.328;43.994;2022-10-13T08:59:20;100958.81;;;23.46;54.25
74678;BME280;63207;56.328;43.994;2022-10-13T09:01:51;100961.13;;;23.49;54.38
74678;BME280;63207;56.328;43.994;2022-10-13T09:04:28;100959.16;;;23.51;54.45
74678;BME280;63207;56.328;43.994;2022-10-13T09:09:36;100964.13;;;23.54;54.31
74678;BME280;63207;56.328;43.994;2022-10-13T09:12:03;100963.97;;;23.55;54.22
74678;BME280;63207;56.328;43.994;2022-10-13T09:17:30;100959.66;;;23.54;54.19
74678;BME280;63207;56.328;43.994;2022-10-13T09:22:34;100970.09;;;23.56;53.95
74678;BME280;63207;56.328;43.994;2022-10-13T09:35:40;100978.16;;;23.54;53.25
74678;BME280;63207;56.328;43.994;2022-10-13T09:40:38;100973.03;;;23.53;53.00
74678;BME280;63207;56.328;43.994;2022-10-13T09:45:57;100975.50;;;23.54;52.80
74678;BME280;63207;56.328;43.994;2022-10-13T09:48:48;100982.47;;;23.55;52.78
74678;BME280;63207;56.328;43.994;2022-10-13T09:51:36;100987.75;;;23.55;52.57
74678;BME280;63207;56.328;43.994;2022-10-13T09:54:32;100983.09;;;23.57;52.64
74678;BME280;63207;56.328;43.994;2022-10-13T09:57:21;100979.97;;;23.54;52.41
74678;BME280;63207;56.328;43.994;2022-10-13T09:59:54;100980.28;;;23.51;52.59
74678;BME280;63207;56.328;43.994;2022-10-13T10:02:43;100983.06;;;23.49;52.63
74678;BME280;63207;56.328;43.994;2022-10-13T10:08:10;100984.91;;;23.49;52.67
74678;BME280;63207;56.328;43.994;2022-10-13T10:10:59;100975.31;;;23.48;52.69
74678;BME280;63207;56.328;43.994;2022-10-13T10:13:26;100983.91;;;23.50;52.74
74678;BME280;63207;56.328;43.994;2022-10-13T10:16:18;100988.34;;;23.49;52.80
74678;BME280;63207;56.328;43.994;2022-10-13T10:24:33;100975.97;;;23.50;52.66
74678;BME280;63207;56.328;43.994;2022-10-13T10:27:11;100983.06;;;23.49;52.79
74678;BME280;63207;56.328;43.994;2022-10-13T10:29:54;100986.72;;;23.48;52.65
74678;BME280;63207;56.328;43.994;2022-10-13T10:32:42;100983.41;;;23.46;52.62
74678;BME280;63207;56.328;43.994;2022-10-13T10:35:23;100980.91;;;23.44;52.64
74678;BME280;63207;56.328;43.994;2022-10-13T10:43:42;100983.03;;;23.41;52.38
74678;BME280;63207;56.328;43.994;2022-10-13T10:46:16;100986.81;;;23.38;52.31
74678;BME280;63207;56.328;43.994;2022-10-13T10:48:45;100987.66;;;23.39;52.14
74678;BME280;63207;56.328;43.994;2022-10-13T10:51:13;100987.78;;;23.37;52.12
74678;BME280;63207;56.328;43.994;2022-10-13T10:56:38;100990.59;;;23.36;52.05
74678;BME280;63207;56.328;43.994;2022-10-13T11:04:40;100991.75;;;23.33;51.67
74678;BME280;63207;56.328;43.994;2022-10-13T11:17:30;100991.28;;;23.38;51.17
74678;BME280;63207;56.328;43.994;2022-10-13T11:19:57;100990.13;;;23.40;51.14
74678;BME280;63207;56.328;43.994;2022-10-13T11:24:53;100990.31;;;23.47;51.29
74678;BME280;63207;56.328;43.994;2022-10-13T11:36:36;100995.59;;;23.47;51.25
74678;BME280;63207;56.328;43.994;2022-10-13T11:39:39;100993.97;;;23.46;51.35
74678;BME280;63207;56.328;43.994;2022-10-13T11:45:31;100996.06;;;23.42;51.25
74678;BME280;63207;56.328;43.994;2022-10-13T11:51:15;100994.56;;;23.40;51.31
74678;BME280;63207;56.328;43.994;2022-10-13T11:56:43;100989.59;;;23.37;51.18
74678;BME280;63207;56.328;43.994;2022-10-13T11:59:20;101000.16;;;23.37;51.05
74678;BME280;63207;56.328;43.994;2022-10-13T12:01:51;100990.75;;;23.34;51.03
74678;BME280;63207;56.328;43.994;2022-10-13T12:04:20;100987.28;;;23.34;50.94
74678;BME280;63207;56.328;43.994;2022-10-13T12:06:59;100986.47;;;23.33;50.86
74678;BME280;63207;56.328;43.994;2022-10-13T12:09:26;100992.72;;;23.32;50.78
74678;BME280;63207;56.328;43.994;2022-10-13T12:11:57;100996.16;;;23.33;50.78
74678;BME280;63207;56.328;43.994;2022-10-13T12:14:45;100995.34;;;23.32;50.78
74678;BME280;63207;56.328;43.994;2022-10-13T12:17:28;100991.06;;;23.31;50.93
74678;BME280;63207;56.328;43.994;2022-10-13T12:20:00;100995.53;;;23.31;50.80
74678;BME280;63207;56.328;43.994;2022-10-13T12:22:30;100998.16;;;23.31;50.75
74678;BME280;63207;56.328;43.994;2022-10-13T12:25:15;100991.06;;;23.31;51.02
74678;BME280;63207;56.328;43.994;2022-10-13T12:27:47;100997.31;;;23.30;50.73
74678;BME280;63207;56.328;43.994;2022-10-13T12:32:51;100992.22;;;23.29;50.52
74678;BME280;63207;56.328;43.994;2022-10-13T12:35:24;101006.09;;;23.31;50.66
74678;BME280;63207;56.328;43.994;2022-10-13T12:37:53;101004.25;;;23.31;50.52
74678;BME280;63207;56.328;43.994;2022-10-13T12:40:20;101005.91;;;23.32;50.70
74678;BME280;63207;56.328;43.994;2022-10-13T12:42:47;100994.38;;;23.33;50.80
74678;BME280;63207;56.328;43.994;2022-10-13T12:45:17;101003.94;;;23.34;50.70
74678;BME280;63207;56.328;43.994;2022-10-13T12:55:20;101009.75;;;23.38;50.27
74678;BME280;63207;56.328;43.994;2022-10-13T12:57:51;101008.75;;;23.39;50.35
74678;BME280;63207;56.328;43.994;2022-10-13T13:02:51;101016.69;;;23.39;48.23
74678;BME280;63207;56.328;43.994;2022-10-13T13:08:02;101012.97;;;23.24;48.49
74678;BME280;63207;56.328;43.994;2022-10-13T13:10:28;101011.28;;;23.22;48.92
74678;BME280;63207;56.328;43.994;2022-10-13T13:13:14;101012.13;;;23.23;49.21
74678;BME280;63207;56.328;43.994;2022-10-13T13:15:42;101027.81;;;23.25;49.37
74678;BME280;63207;56.328;43.994;2022-10-13T13:18:36;101017.25;;;23.25;49.32
74678;BME280;63207;56.328;43.994;2022-10-13T13:21:25;101021.56;;;23.26;49.53
74678;BME280;63207;56.328;43.994;2022-10-13T13:23:51;101019.88;;;23.25;49.59
74678;BME280;63207;56.328;43.994;2022-10-13T13:26:21;101025.16;;;23.25;49.59
74678;BME280;63207;56.328;43.994;2022-10-13T13:28:51;101024.34;;;23.24;49.88
74678;BME280;63207;56.328;43.994;2022-10-13T13:31:19;101025.97;;;23.25;49.55
74678;BME280;63207;56.328;43.994;2022-10-13T13:33:46;101024.47;;;23.22;49.63
74678;BME280;63207;56.328;43.994;2022-10-13T13:36:18;101028.78;;;23.24;49.52
74678;BME280;63207;56.328;43.994;2022-10-13T13:38:47;101034.22;;;23.22;49.75
74678;BME280;63207;56.328;43.994;2022-10-13T13:41:13;101039.50;;;23.22;49.62
74678;BME280;63207;56.328;43.994;2022-10-13T13:43:40;101038.66;;;23.21;49.59
74678;BME280;63207;56.328;43.994;2022-10-13T13:46:11;101041.31;;;23.21;49.71
74678;BME280;63207;56.328;43.994;2022-10-13T13:48:39;101036.03;;;23.21;49.69
74678;BME280;63207;56.328;43.994;2022-10-13T13:51:04;101030.75;;;23.21;49.69
74678;BME280;63207;56.328;43.994;2022-10-13T13:53:30;101041.44;;;23.20;49.80
74678;BME280;63207;56.328;43.994;2022-10-13T13:55:56;101040.63;;;23.19;49.73
74678;BME280;63207;56.328;43.994;2022-10-13T13:58:22;101041.63;;;23.18;49.74
74678;BME280;63207;56.328;43.994;2022-10-13T14:00:48;101041.63;;;23.18;49.68
74678;BME280;63207;56.328;43.994;2022-10-13T14:03:14;101044.28;;;23.18;49.84
74678;BME280;63207;56.328;43.994;2022-10-13T14:05:41;101043.59;;;23.16;49.87
74678;BME280;63207;56.328;43.994;2022-10-13T14:08:07;101050.38;;;23.19;49.82
74678;BME280;63207;56.328;43.994;2022-10-13T14:10:33;101047.88;;;23.17;49.92
74678;BME280;63207;56.328;43.994;2022-10-13T14:12:59;101042.59;;;23.17;49.98
74678;BME280;63207;56.328;43.994;2022-10-13T14:15:26;101045.41;;;23.16;50.00
74678;BME280;63207;56.328;43.994;2022-10-13T14:17:52;101052.31;;;23.17;49.97
74678;BME280;63207;56.328;43.994;2022-10-13T14:20:19;101043.72;;;23.15;50.00
74678;BME280;63207;56.328;43.994;2022-10-13T14:22:46;101050.81;;;23.14;50.14
74678;BME280;63207;56.328;43.994;2022-10-13T14:25:31;101048.19;;;23.14;49.98
74678;BME280;63207;56.328;43.994;2022-10-13T14:27:57;101047.34;;;23.14;50.15
74678;BME280;63207;56.328;43.994;2022-10-13T14:30:23;101047.34;;;23.14;50.23
74678;BME280;63207;56.328;43.994;2022-10-13T14:32:49;101055.28;;;23.14;50.16
74678;BME280;63207;56.328;43.994;2022-10-13T14:35:15;101052.78;;;23.12;50.24
74678;BME280;63207;56.328;43.994;2022-10-13T14:38:00;101057.91;;;23.14;50.22
74678;BME280;63207;56.328;43.994;2022-10-13T14:40:26;101054.47;;;23.13;50.29
74678;BME280;63207;56.328;43.994;2022-10-13T14:42:52;101050.97;;;23.13;50.18
74678;BME280;63207;56.328;43.994;2022-10-13T14:45:18;101055.41;;;23.12;50.32
74678;BME280;63207;56.328;43.994;2022-10-13T14:47:44;101058.06;;;23.12;50.33
74678;BME280;63207;56.328;43.994;2022-10-13T14:50:10;101058.06;;;23.12;50.46
74678;BME280;63207;56.328;43.994;2022-10-13T14:52:36;101055.41;;;23.12;50.38
74678;BME280;63207;56.328;43.994;2022-10-13T14:55:02;101054.59;;;23.12;50.41